Gorham, Kansas
Current Conditions -  °F | °C
As of 8:53 AM on Tuesday 21 Oct 2014 (Local Time) from KRSL Reporting Station
Few Clouds Few Clouds  
Wind Chill: 11°   Ceiling: Unl
Heat Index: 11°   Visibility: 10mi
Dew Point:   Wind: 5mph
Humidity: 83%   Direction: 120°ESE
Pressure: 30.08"   Gusts: NA
Location:  38.88°N, 99.02°W
Report Text: KRSL 211353Z AUTO 12004KT 10SM FEW047 11/08 A3008 RMK AO2 SLP184 T01110083
Loading
Personal Weather Stations






























Interactive Weather Map
Tropical Storm Tracking
New forecast layout! Learn more

10-Day Weather Forecast

Advertisements
Track Severe Weather on mobile